Time;durP1;ratioP1;P1;durP2;ratioP2;P2;SDS_P1;SDS_P2;PMS_P1;PMS_P2;Temp;Humidity;BMP_temperature;BMP_pressure;BME280_temperature;BME280_humidity;BME280_pressure;Samples;Min_cycle;Max_cycle;Signal;HPM_P1;HPM_P2
2023/11/24 00:00:00;;;;;;;21.57;3.40;;;11.90;1.00;;;;;;5066217;28;38321;-84
2023/11/24 00:02:27;;;;;;;29.52;5.15;;;11.90;1.00;;;;;;5075713;28;39154;-84
2023/11/24 00:04:53;;;;;;;20.35;3.67;;;11.80;1.00;;;;;;5054993;28;36453;-82
2023/11/24 00:07:19;;;;;;;22.45;4.35;;;11.80;1.00;;;;;;5059077;28;35953;-79
2023/11/24 00:09:46;;;;;;;22.10;3.80;;;11.70;1.00;;;;;;5062387;28;37636;-83
2023/11/24 00:12:12;;;;;;;30.75;5.80;;;11.70;1.00;;;;;;5060901;28;38151;-82
2023/11/24 00:14:39;;;;;;;25.45;4.57;;;11.60;14.40;;;;;;5064890;28;37483;-82
2023/11/24 00:17:05;;;;;;;25.60;4.20;;;11.50;55.60;;;;;;5062619;28;39842;-82
2023/11/24 00:19:31;;;;;;;23.20;5.00;;;11.10;91.40;;;;;;5062245;28;37596;-82
2023/11/24 00:21:57;;;;;;;31.48;4.97;;;11.00;99.90;;;;;;5057773;28;37967;-81
2023/11/24 00:24:24;;;;;;;29.20;4.60;;;10.70;99.90;;;;;;5067644;28;37372;-82
2023/11/24 00:26:51;;;;;;;19.93;4.53;;;10.40;99.90;;;;;;5069685;28;39428;-84
2023/11/24 00:29:17;;;;;;;24.93;5.17;;;10.20;99.90;;;;;;5065504;28;39074;-82
2023/11/24 00:31:45;;;;;;;26.53;4.67;;;10.10;99.90;;;;;;5067526;28;38567;-80
2023/11/24 00:34:11;;;;;;;29.40;5.23;;;10.00;99.90;;;;;;5059562;28;37381;-83
2023/11/24 00:36:37;;;;;;;25.17;3.77;;;9.90;99.90;;;;;;5060237;28;39366;-81
2023/11/24 00:39:04;;;;;;;20.70;4.60;;;9.80;99.90;;;;;;5066520;28;38202;-83
2023/11/24 00:41:30;;;;;;;26.50;4.37;;;9.80;99.90;;;;;;5062253;28;39911;-82
2023/11/24 00:43:56;;;;;;;26.60;4.77;;;9.80;99.90;;;;;;5060589;28;37950;-82
2023/11/24 00:46:22;;;;;;;24.87;4.33;;;9.80;99.90;;;;;;5059402;28;39045;-81
2023/11/24 00:48:48;;;;;;;22.33;3.97;;;9.80;99.90;;;;;;5065046;28;37567;-82
2023/11/24 00:51:17;;;;;;;26.03;3.67;;;9.80;99.90;;;;;;5063548;28;39268;-82
2023/11/24 00:53:43;;;;;;;21.10;3.50;;;9.80;99.90;;;;;;5064006;28;38331;-83
2023/11/24 00:56:10;;;;;;;18.40;3.07;;;9.80;99.90;;;;;;5066152;28;38022;-81
2023/11/24 00:58:36;;;;;;;20.97;4.03;;;9.90;99.90;;;;;;5077065;28;39657;-82
2023/11/24 01:01:02;;;;;;;19.67;3.10;;;9.90;99.90;;;;;;5062962;28;39217;-82
2023/11/24 01:03:28;;;;;;;23.07;3.63;;;9.80;99.90;;;;;;5075367;28;37810;-82
2023/11/24 01:05:55;;;;;;;18.43;2.50;;;9.80;99.90;;;;;;5062148;28;39498;-82
2023/11/24 01:08:21;;;;;;;19.73;2.97;;;9.70;99.90;;;;;;5061411;28;38706;-82
2023/11/24 01:10:48;;;;;;;16.53;2.93;;;9.80;99.90;;;;;;5061367;28;38237;-83
2023/11/24 01:13:14;;;;;;;25.37;3.07;;;9.80;99.90;;;;;;5064404;28;36297;-82
2023/11/24 01:15:40;;;;;;;18.30;3.20;;;9.80;99.90;;;;;;5060349;28;39269;-81
2023/11/24 01:18:06;;;;;;;23.77;2.77;;;9.80;99.90;;;;;;5064914;28;37489;-84
2023/11/24 01:20:35;;;;;;;15.43;2.47;;;9.90;99.90;;;;;;5055692;28;38183;-83
2023/11/24 01:23:01;;;;;;;16.40;2.27;;;10.00;99.90;;;;;;5060942;28;37579;-81
2023/11/24 01:25:27;;;;;;;13.57;2.90;;;10.00;99.90;;;;;;5063521;28;39024;-83
2023/11/24 01:27:54;;;;;;;14.27;2.17;;;9.80;99.90;;;;;;5060585;28;37474;-85
2023/11/24 01:30:20;;;;;;;14.23;2.13;;;9.50;99.90;;;;;;5060559;28;37296;-81
2023/11/24 01:32:46;;;;;;;14.23;2.13;;;9.30;99.90;;;;;;5061411;28;37023;-82
2023/11/24 01:35:12;;;;;;;16.57;2.40;;;9.10;99.90;;;;;;5059610;28;37804;-82
2023/11/24 01:37:40;;;;;;;22.77;2.53;;;9.10;99.90;;;;;;5062631;28;37364;-81
2023/11/24 01:40:10;;;;;;;17.43;2.77;;;9.00;99.90;;;;;;5059713;28;39052;-82
2023/11/24 01:42:37;;;;;;;20.07;2.77;;;9.00;99.90;;;;;;5064218;28;37975;-81
2023/11/24 01:45:07;;;;;;;11.03;2.53;;;9.00;99.90;;;;;;5064025;28;37738;-81
2023/11/24 01:47:33;;;;;;;15.50;2.17;;;9.00;99.90;;;;;;5058154;28;47331;-81
2023/11/24 01:50:03;;;;;;;18.60;2.07;;;9.10;99.90;;;;;;5059350;28;37403;-82
2023/11/24 01:52:30;;;;;;;12.87;2.50;;;9.10;99.90;;;;;;5061375;28;35689;-81
2023/11/24 01:54:57;;;;;;;11.73;1.80;;;9.10;99.90;;;;;;5058729;28;39334;-84
2023/11/24 01:57:23;;;;;;;13.10;2.60;;;9.00;99.90;;;;;;5053731;28;38261;-81
2023/11/24 01:59:50;;;;;;;13.13;1.60;;;8.90;99.90;;;;;;5064054;28;40989;-83
2023/11/24 02:02:20;;;;;;;10.40;1.57;;;8.90;99.90;;;;;;5441159;22;37496;-75
2023/11/24 02:04:47;;;;;;;17.80;2.63;;;8.80;99.90;;;;;;5039518;28;36024;-76
2023/11/24 02:07:13;;;;;;;12.57;2.07;;;8.70;99.90;;;;;;5042166;28;37442;-76
2023/11/24 02:09:41;;;;;;;9.07;1.70;;;8.70;99.90;;;;;;5034204;28;38044;-77
2023/11/24 02:12:10;;;;;;;20.07;3.03;;;8.70;99.90;;;;;;5042383;28;37116;-76
2023/11/24 02:14:36;;;;;;;11.93;2.20;;;8.60;99.90;;;;;;5041539;28;40563;-76
2023/11/24 02:17:02;;;;;;;25.00;2.63;;;8.60;99.90;;;;;;5042216;28;38575;-76
2023/11/24 02:19:32;;;;;;;9.87;1.90;;;8.70;99.90;;;;;;5041890;28;38733;-77
2023/11/24 02:21:58;;;;;;;20.53;2.63;;;8.70;99.90;;;;;;5034793;28;36349;-76
2023/11/24 02:24:24;;;;;;;15.03;2.53;;;8.80;99.90;;;;;;5041748;28;38804;-76
2023/11/24 02:26:50;;;;;;;13.83;2.13;;;8.80;99.90;;;;;;5043029;28;38312;-76
2023/11/24 02:29:16;;;;;;;21.77;2.50;;;8.80;99.90;;;;;;5040795;28;37874;-77
2023/11/24 02:31:43;;;;;;;19.63;2.57;;;8.90;99.90;;;;;;5044598;28;35812;-76
2023/11/24 02:34:13;;;;;;;13.23;2.00;;;8.90;99.90;;;;;;5042677;28;38387;-76
2023/11/24 02:36:42;;;;;;;10.87;2.20;;;9.00;99.90;;;;;;5046572;28;38194;-77
2023/11/24 02:39:08;;;;;;;21.43;3.00;;;8.90;99.90;;;;;;5044044;28;38696;-76
2023/11/24 02:41:35;;;;;;;20.13;3.13;;;9.00;99.90;;;;;;5047260;28;36898;-77
2023/11/24 02:44:04;;;;;;;17.87;2.27;;;9.00;99.90;;;;;;5038011;28;39581;-76
2023/11/24 02:46:30;;;;;;;18.07;2.43;;;9.00;99.90;;;;;;5044938;28;46769;-76
2023/11/24 02:48:56;;;;;;;13.63;2.57;;;9.00;99.90;;;;;;5043153;28;36967;-77
2023/11/24 02:51:24;;;;;;;13.27;2.50;;;9.10;99.90;;;;;;5043832;28;35805;-77
2023/11/24 02:53:50;;;;;;;18.97;2.97;;;9.10;99.90;;;;;;5046442;28;38487;-77
2023/11/24 02:56:16;;;;;;;17.13;2.63;;;9.20;99.90;;;;;;5043962;28;37424;-77
2023/11/24 02:58:44;;;;;;;18.37;2.60;;;9.20;99.90;;;;;;5046415;28;36967;-77
2023/11/24 03:01:11;;;;;;;14.27;2.73;;;9.20;99.90;;;;;;5039791;28;37272;-77
2023/11/24 03:03:37;;;;;;;15.20;1.87;;;9.30;99.90;;;;;;5043538;28;38106;-76
2023/11/24 03:06:05;;;;;;;19.50;2.30;;;9.30;99.90;;;;;;5029755;28;37261;-76
2023/11/24 03:08:34;;;;;;;21.40;1.87;;;9.40;99.90;;;;;;5060556;28;37886;-77
2023/11/24 03:11:06;;;;;;;11.50;1.70;;;9.50;97.90;;;;;;5049038;28;36158;-77
2023/11/24 03:13:35;;;;;;;10.80;1.87;;;9.50;97.50;;;;;;5050779;28;47494;-77
2023/11/24 03:16:03;;;;;;;16.53;1.80;;;9.50;96.30;;;;;;5046321;28;37152;-77
2023/11/24 03:18:29;;;;;;;10.70;1.80;;;9.50;93.30;;;;;;5053206;28;37544;-76
2023/11/24 03:20:56;;;;;;;11.10;2.37;;;9.60;88.20;;;;;;5044416;28;37446;-77
2023/11/24 03:23:22;;;;;;;7.13;1.50;;;9.70;70.40;;;;;;5046058;28;38846;-78
2023/11/24 03:25:48;;;;;;;10.77;1.60;;;9.80;64.00;;;;;;5044942;28;37847;-77
2023/11/24 03:28:16;;;;;;;14.37;1.93;;;9.80;55.30;;;;;;5051638;28;38747;-77
2023/11/24 03:30:42;;;;;;;15.60;1.90;;;9.90;56.70;;;;;;5044533;28;37645;-77
2023/11/24 03:33:09;;;;;;;8.60;1.40;;;9.90;45.00;;;;;;5044095;28;38018;-76
2023/11/24 03:35:35;;;;;;;11.73;1.40;;;9.90;40.70;;;;;;5042828;28;37372;-77
2023/11/24 03:38:01;;;;;;;9.97;1.37;;;9.90;29.80;;;;;;5054271;28;37556;-76
2023/11/24 03:40:27;;;;;;;7.17;1.47;;;9.90;18.00;;;;;;5046207;28;37348;-76
2023/11/24 03:42:54;;;;;;;10.83;1.30;;;10.00;22.60;;;;;;5046486;28;40028;-76
2023/11/24 03:45:20;;;;;;;13.77;1.57;;;10.10;19.90;;;;;;5047143;28;36888;-77
2023/11/24 03:47:46;;;;;;;10.37;1.43;;;10.10;18.10;;;;;;5046982;28;38088;-78
2023/11/24 03:50:17;;;;;;;14.63;2.27;;;10.00;38.70;;;;;;5043847;28;36825;-77
2023/11/24 03:52:43;;;;;;;15.17;2.73;;;9.70;99.90;;;;;;5036853;28;38567;-76
2023/11/24 03:55:11;;;;;;;9.00;1.67;;;9.10;99.90;;;;;;5037206;28;37157;-76
2023/11/24 03:57:37;;;;;;;12.87;1.90;;;8.80;99.90;;;;;;5037373;28;38239;-77
2023/11/24 04:00:05;;;;;;;14.83;2.27;;;8.60;99.90;;;;;;5046828;28;37040;-76
2023/11/24 04:02:31;;;;;;;16.50;2.47;;;8.50;99.90;;;;;;5037880;28;37647;-76
2023/11/24 04:04:58;;;;;;;20.20;2.27;;;8.50;99.90;;;;;;5045951;28;38593;-77
2023/11/24 04:07:25;;;;;;;18.23;2.50;;;8.60;99.90;;;;;;5039655;28;37033;-76
2023/11/24 04:09:51;;;;;;;21.10;2.67;;;8.60;99.90;;;;;;5046409;28;36777;-77
2023/11/24 04:12:17;;;;;;;16.00;2.40;;;8.70;99.90;;;;;;5046257;28;37193;-76
2023/11/24 04:14:43;;;;;;;27.07;2.47;;;8.80;99.90;;;;;;5047427;28;37717;-76
2023/11/24 04:17:10;;;;;;;10.47;2.57;;;8.90;99.90;;;;;;5043150;28;38438;-76
2023/11/24 04:19:36;;;;;;;12.37;1.90;;;8.90;99.90;;;;;;5041877;28;36100;-76
2023/11/24 04:22:03;;;;;;;9.33;1.43;;;8.90;99.90;;;;;;5045865;28;37653;-77
2023/11/24 04:24:29;;;;;;;11.00;1.97;;;8.90;99.90;;;;;;5049994;28;39329;-76
2023/11/24 04:26:55;;;;;;;13.60;1.57;;;8.90;99.90;;;;;;5048655;28;38079;-76
2023/11/24 04:29:21;;;;;;;17.17;1.97;;;9.00;99.90;;;;;;5039912;28;37969;-77
2023/11/24 04:31:47;;;;;;;10.10;1.73;;;9.00;99.90;;;;;;5040404;28;38637;-78
2023/11/24 04:34:14;;;;;;;9.30;1.90;;;9.10;99.90;;;;;;5042839;28;38559;-77
2023/11/24 04:36:40;;;;;;;12.67;2.07;;;9.00;99.90;;;;;;5044777;28;39289;-76
2023/11/24 04:39:09;;;;;;;9.73;1.40;;;8.80;99.90;;;;;;5042289;28;37267;-75
2023/11/24 04:41:35;;;;;;;8.60;1.60;;;8.60;99.90;;;;;;5040303;28;37753;-76
2023/11/24 04:44:01;;;;;;;11.23;1.40;;;8.50;99.90;;;;;;5045611;28;38341;-75
2023/11/24 04:46:27;;;;;;;14.47;1.80;;;8.40;99.90;;;;;;5043047;28;37779;-76
2023/11/24 04:48:53;;;;;;;14.73;1.90;;;8.40;99.90;;;;;;5041909;28;37306;-76
2023/11/24 04:51:20;;;;;;;18.70;2.00;;;8.40;99.90;;;;;;5034786;28;37551;-75
2023/11/24 04:53:49;;;;;;;16.50;2.50;;;8.40;99.90;;;;;;5056494;28;38321;-77
2023/11/24 04:56:15;;;;;;;18.37;2.20;;;8.50;99.90;;;;;;5041823;28;37117;-74
2023/11/24 04:58:41;;;;;;;11.00;1.83;;;8.50;99.90;;;;;;5043637;28;37231;-76
2023/11/24 05:01:11;;;;;;;11.43;2.17;;;8.60;99.90;;;;;;5045450;28;37691;-76
2023/11/24 05:03:38;;;;;;;11.90;1.77;;;8.60;99.90;;;;;;5048737;28;38458;-76
2023/11/24 05:06:04;;;;;;;15.03;1.60;;;8.50;99.90;;;;;;5044422;28;37344;-77
2023/11/24 05:08:30;;;;;;;9.37;1.57;;;8.40;99.90;;;;;;5043235;28;37801;-75
2023/11/24 05:10:59;;;;;;;14.73;1.20;;;8.30;99.90;;;;;;5039158;28;38700;-76
2023/11/24 05:13:25;;;;;;;6.07;1.20;;;8.20;99.90;;;;;;5040625;28;38816;-76
2023/11/24 05:15:51;;;;;;;9.13;1.60;;;8.20;99.90;;;;;;5044671;28;38524;-75
2023/11/24 05:18:17;;;;;;;9.37;1.30;;;8.20;99.90;;;;;;5041644;28;36004;-76
2023/11/24 05:20:43;;;;;;;7.53;1.33;;;8.10;99.90;;;;;;5044791;28;38042;-76
2023/11/24 05:23:10;;;;;;;8.97;2.07;;;8.10;99.90;;;;;;5049405;28;37901;-76
2023/11/24 05:25:36;;;;;;;12.13;1.83;;;8.10;99.90;;;;;;5044088;28;36954;-77
2023/11/24 05:28:02;;;;;;;13.53;1.23;;;8.20;99.90;;;;;;5047378;28;37853;-76
2023/11/24 05:30:31;;;;;;;9.87;2.00;;;8.20;99.90;;;;;;5043974;28;38983;-77
2023/11/24 05:33:03;;;;;;;15.00;1.63;;;8.30;99.90;;;;;;5045233;28;37391;-76
2023/11/24 05:35:29;;;;;;;10.52;1.42;;;8.30;99.90;;;;;;5044606;28;47230;-77
2023/11/24 05:37:56;;;;;;;10.63;1.80;;;8.20;99.90;;;;;;5036585;28;36033;-77
2023/11/24 05:40:23;;;;;;;12.70;2.07;;;8.10;99.90;;;;;;5044536;28;39957;-77
2023/11/24 05:42:49;;;;;;;22.63;2.20;;;8.00;99.90;;;;;;5044630;28;37748;-77
2023/11/24 05:45:15;;;;;;;12.97;2.20;;;8.00;99.90;;;;;;5040521;28;38106;-75
2023/11/24 05:47:44;;;;;;;9.10;2.27;;;7.90;99.90;;;;;;5042041;28;36667;-77
2023/11/24 05:50:17;;;;;;;9.77;2.10;;;7.90;99.90;;;;;;5039897;28;37214;-75
2023/11/24 05:52:43;;;;;;;13.32;1.55;;;7.90;99.90;;;;;;5058708;28;37981;-76
2023/11/24 05:55:10;;;;;;;9.60;1.93;;;8.00;99.90;;;;;;5044010;28;37771;-76
2023/11/24 05:57:37;;;;;;;15.83;1.80;;;8.00;99.90;;;;;;5041753;28;37631;-76
2023/11/24 06:00:08;;;;;;;10.67;1.87;;;8.00;99.90;;;;;;5031299;28;39445;-77
2023/11/24 06:02:35;;;;;;;15.13;2.10;;;8.10;99.90;;;;;;5031154;28;38314;-77
2023/11/24 06:05:05;;;;;;;17.47;1.67;;;8.20;99.90;;;;;;5038601;28;39111;-76
2023/11/24 06:07:31;;;;;;;16.70;3.03;;;8.30;99.60;;;;;;5034647;28;48681;-75
2023/11/24 06:09:57;;;;;;;14.73;2.43;;;8.50;95.00;;;;;;5038014;28;39639;-75
2023/11/24 06:12:24;;;;;;;14.33;2.20;;;8.60;96.60;;;;;;5030589;28;39791;-76
2023/11/24 06:14:50;;;;;;;12.80;2.13;;;8.60;94.20;;;;;;5030741;28;37467;-76
2023/11/24 06:17:16;;;;;;;16.93;2.40;;;8.70;93.90;;;;;;5036148;28;37915;-73
2023/11/24 06:19:43;;;;;;;14.23;2.27;;;8.90;92.80;;;;;;5041609;28;39457;-75
2023/11/24 06:22:09;;;;;;;16.70;2.70;;;9.00;93.10;;;;;;5041430;28;37664;-76
2023/11/24 06:24:35;;;;;;;15.57;1.90;;;9.00;88.00;;;;;;5032630;28;36976;-76
2023/11/24 06:27:04;;;;;;;9.53;1.70;;;9.10;78.70;;;;;;5035512;28;37517;-77
2023/11/24 06:29:34;;;;;;;12.57;2.73;;;9.00;91.50;;;;;;5042583;28;47036;-76
2023/11/24 06:32:00;;;;;;;17.03;2.30;;;9.00;82.60;;;;;;5034113;28;38330;-77
2023/11/24 06:34:26;;;;;;;8.40;1.80;;;8.90;83.70;;;;;;5042654;28;38519;-76
2023/11/24 06:36:53;;;;;;;15.20;1.87;;;9.00;78.60;;;;;;5043792;28;37845;-77
2023/11/24 06:39:21;;;;;;;15.20;2.30;;;9.00;83.80;;;;;;5040279;28;39244;-77
2023/11/24 06:41:47;;;;;;;15.37;2.73;;;8.90;93.70;;;;;;5040489;28;36934;-77
2023/11/24 06:44:15;;;;;;;11.53;1.97;;;8.80;99.90;;;;;;5043194;28;37248;-78
2023/11/24 06:46:42;;;;;;;17.20;2.17;;;8.60;99.90;;;;;;5042485;28;36157;-78
2023/11/24 06:49:09;;;;;;;15.27;3.00;;;8.40;99.90;;;;;;5043112;28;37082;-77
2023/11/24 06:51:36;;;;;;;14.50;1.80;;;8.20;99.90;;;;;;5045146;28;38058;-77
2023/11/24 06:54:02;;;;;;;15.30;2.60;;;8.10;99.90;;;;;;5034474;28;38574;-76
2023/11/24 06:56:29;;;;;;;22.90;2.97;;;7.90;99.90;;;;;;5037194;28;35991;-74
2023/11/24 06:58:58;;;;;;;10.93;1.70;;;7.80;99.90;;;;;;5039691;28;38393;-76
2023/11/24 07:01:31;;;;;;;18.83;2.43;;;7.70;99.90;;;;;;5039808;28;38098;-75
2023/11/24 07:04:00;;;;;;;11.87;2.40;;;7.70;99.90;;;;;;5034036;28;38277;-76
2023/11/24 07:06:27;;;;;;;15.73;2.73;;;7.70;99.90;;;;;;5043567;28;36260;-77
2023/11/24 07:08:53;;;;;;;14.10;2.40;;;7.70;99.90;;;;;;5037108;28;39836;-75
2023/11/24 07:11:20;;;;;;;18.00;2.60;;;7.60;99.90;;;;;;5033224;28;38360;-76
2023/11/24 07:13:52;;;;;;;22.53;2.40;;;7.70;99.90;;;;;;5042193;28;38224;-76
2023/11/24 07:16:18;;;;;;;14.98;1.95;;;7.70;99.90;;;;;;5039816;28;38092;-77
2023/11/24 07:18:47;;;;;;;18.73;3.40;;;7.70;99.90;;;;;;5040345;28;39794;-77
2023/11/24 07:21:14;;;;;;;14.77;1.97;;;7.70;99.90;;;;;;5040698;28;38622;-77
2023/11/24 07:23:41;;;;;;;6.03;1.60;;;7.80;99.90;;;;;;5042830;28;37499;-78
2023/11/24 07:26:17;;;;;;;9.30;1.40;;;7.80;99.90;;;;;;5040575;28;37615;-78
2023/11/24 07:28:44;;;;;;;10.97;1.63;;;7.80;99.90;;;;;;5040784;28;39543;-78
2023/11/24 07:31:20;;;;;;;10.30;1.37;;;7.80;99.90;;;;;;5037956;28;38482;-76
2023/11/24 07:33:49;;;;;;;9.57;1.27;;;7.70;99.90;;;;;;5039703;28;38098;-77
2023/11/24 07:36:16;;;;;;;10.50;1.10;;;7.70;99.90;;;;;;5041582;28;36528;-77
2023/11/24 07:38:42;;;;;;;10.93;1.20;;;7.50;99.90;;;;;;5042768;28;37723;-77
2023/11/24 07:41:09;;;;;;;6.50;0.90;;;7.50;99.90;;;;;;5030016;28;38009;-77
2023/11/24 07:43:35;;;;;;;5.60;1.00;;;7.30;99.90;;;;;;5049049;28;38451;-77
2023/11/24 07:46:06;;;;;;;4.83;0.80;;;7.30;99.90;;;;;;5046750;28;36424;-79
2023/11/24 07:48:35;;;;;;;5.87;0.80;;;7.30;99.90;;;;;;5039447;28;49424;-77
2023/11/24 07:51:02;;;;;;;9.90;2.33;;;7.40;99.90;;;;;;5038335;28;37407;-76
2023/11/24 07:53:29;;;;;;;9.70;1.43;;;7.40;99.90;;;;;;5047484;28;38003;-77
2023/11/24 07:55:55;;;;;;;9.50;1.30;;;7.60;99.90;;;;;;5054203;28;37282;-77
2023/11/24 07:58:23;;;;;;;13.17;1.83;;;7.80;99.90;;;;;;5055303;28;39084;-77
2023/11/24 08:00:49;;;;;;;22.43;2.60;;;7.80;99.90;;;;;;5056865;28;38109;-77
2023/11/24 08:03:17;;;;;;;15.97;1.93;;;7.90;99.90;;;;;;5059093;28;38673;-77
2023/11/24 08:05:50;;;;;;;12.40;2.00;;;7.90;99.90;;;;;;5062841;28;37138;-79
2023/11/24 08:08:17;;;;;;;13.50;2.43;;;7.80;99.90;;;;;;5061427;28;38022;-76
2023/11/24 08:10:46;;;;;;;16.37;2.20;;;7.70;99.90;;;;;;5049456;28;38760;-77
2023/11/24 08:13:12;;;;;;;13.47;1.90;;;7.70;99.90;;;;;;5049370;28;38440;-79
2023/11/24 08:15:38;;;;;;;16.03;1.70;;;7.70;99.90;;;;;;5052566;28;37143;-76
2023/11/24 08:18:04;;;;;;;6.40;1.20;;;7.60;99.90;;;;;;5050146;28;37814;-77
2023/11/24 08:20:30;;;;;;;12.87;1.30;;;7.70;99.90;;;;;;5041159;28;39393;-77
2023/11/24 08:22:58;;;;;;;4.87;0.90;;;7.70;99.90;;;;;;5049652;28;37529;-79
2023/11/24 08:25:24;;;;;;;9.60;1.37;;;7.60;99.90;;;;;;5046879;28;37789;-76
2023/11/24 08:27:53;;;;;;;7.70;0.90;;;7.50;99.90;;;;;;5046560;28;38871;-76
2023/11/24 08:30:19;;;;;;;6.30;1.70;;;7.40;99.90;;;;;;5038904;28;38949;-76
2023/11/24 08:32:49;;;;;;;6.67;0.90;;;7.40;99.90;;;;;;5044156;28;38016;-77
2023/11/24 08:35:15;;;;;;;8.83;1.70;;;7.40;99.90;;;;;;5046779;28;38110;-77
2023/11/24 08:37:41;;;;;;;11.90;1.13;;;7.50;99.90;;;;;;5047387;28;37469;-77
2023/11/24 08:40:11;;;;;;;10.93;1.47;;;7.50;99.90;;;;;;5044118;28;37892;-76
2023/11/24 08:42:38;;;;;;;11.60;1.50;;;7.50;99.90;;;;;;5047714;28;38479;-77
2023/11/24 08:45:06;;;;;;;6.70;1.37;;;7.50;99.90;;;;;;5045893;28;35977;-77
2023/11/24 08:47:32;;;;;;;8.57;1.50;;;7.50;99.90;;;;;;5041298;28;37559;-77
2023/11/24 08:49:58;;;;;;;12.73;1.67;;;7.50;99.90;;;;;;5029660;28;38709;-75
2023/11/24 08:52:25;;;;;;;13.53;2.50;;;7.60;99.90;;;;;;5050403;28;38923;-77
2023/11/24 08:54:51;;;;;;;9.97;1.80;;;7.70;99.90;;;;;;5042027;28;36503;-77
2023/11/24 08:57:17;;;;;;;11.03;1.73;;;7.80;99.90;;;;;;5044435;28;37769;-77
2023/11/24 08:59:44;;;;;;;12.47;1.70;;;7.80;99.90;;;;;;5046500;28;38222;-76
2023/11/24 09:02:10;;;;;;;14.67;1.53;;;7.90;99.90;;;;;;5045235;28;37241;-76
2023/11/24 09:04:36;;;;;;;16.53;2.07;;;7.90;99.90;;;;;;5047113;28;36170;-78
2023/11/24 09:07:03;;;;;;;11.40;1.80;;;8.00;99.90;;;;;;5053520;28;38760;-78
2023/11/24 09:09:29;;;;;;;16.50;1.90;;;8.10;99.90;;;;;;5045537;28;37187;-77
2023/11/24 09:11:55;;;;;;;15.47;2.17;;;8.10;99.90;;;;;;5031248;28;37224;-77
2023/11/24 09:14:21;;;;;;;14.27;1.97;;;8.10;99.90;;;;;;5041519;28;37831;-78
2023/11/24 09:16:49;;;;;;;16.37;2.50;;;8.10;99.90;;;;;;5048897;28;38002;-77
2023/11/24 09:19:15;;;;;;;13.50;2.87;;;8.20;99.90;;;;;;5047393;28;38651;-78
2023/11/24 09:21:41;;;;;;;14.37;2.10;;;8.30;99.90;;;;;;5040300;28;37919;-77
2023/11/24 09:24:08;;;;;;;19.60;2.33;;;8.30;99.90;;;;;;5055638;28;37344;-77
2023/11/24 09:26:34;;;;;;;11.23;1.87;;;8.40;96.30;;;;;;5050855;28;38703;-78
2023/11/24 09:29:00;;;;;;;13.17;2.77;;;8.40;88.30;;;;;;5046128;28;38771;-78
2023/11/24 09:31:27;;;;;;;15.77;2.23;;;8.50;71.80;;;;;;5047521;28;38216;-77
2023/11/24 09:33:59;;;;;;;21.03;2.33;;;8.60;44.80;;;;;;5039997;28;37203;-78
2023/11/24 09:36:26;;;;;;;18.00;2.65;;;8.70;42.20;;;;;;5042728;28;38821;-78
2023/11/24 09:38:52;;;;;;;11.77;2.20;;;8.70;25.20;;;;;;5044311;28;38731;-77
2023/11/24 09:41:19;;;;;;;14.93;2.47;;;8.80;32.40;;;;;;5048108;28;37881;-79
2023/11/24 09:43:45;;;;;;;19.40;2.80;;;8.80;21.80;;;;;;5047766;28;38261;-78
2023/11/24 09:46:12;;;;;;;14.47;2.10;;;8.70;27.00;;;;;;5042609;28;39286;-76
2023/11/24 09:48:43;;;;;;;12.60;2.30;;;8.60;31.80;;;;;;5045079;28;38518;-76
2023/11/24 09:51:12;;;;;;;20.20;3.27;;;8.50;43.10;;;;;;5046948;28;38539;-77
2023/11/24 09:53:42;;;;;;;15.50;2.60;;;8.40;48.90;;;;;;5046566;28;37018;-77
2023/11/24 09:56:08;;;;;;;18.50;3.30;;;8.40;59.70;;;;;;5041134;28;38294;-76
2023/11/24 09:58:34;;;;;;;21.97;3.93;;;8.40;58.70;;;;;;5044484;28;40391;-76
2023/11/24 10:01:06;;;;;;;14.30;2.67;;;8.50;55.50;;;;;;5046902;28;36884;-76
2023/11/24 10:03:43;;;;;;;24.97;3.67;;;8.50;54.40;;;;;;5042395;28;47492;-78
2023/11/24 10:06:10;;;;;;;20.03;3.67;;;8.60;44.20;;;;;;5036503;28;38428;-76
2023/11/24 10:08:40;;;;;;;22.50;3.90;;;8.70;44.80;;;;;;5063093;28;38604;-77
2023/11/24 10:11:27;;;;;;;23.27;3.40;;;8.90;30.50;;;;;;5046267;28;36901;-77
2023/11/24 10:13:57;;;;;;;25.23;3.57;;;9.10;32.00;;;;;;5033771;28;36114;-75
2023/11/24 10:16:23;;;;;;;23.53;3.10;;;9.30;26.00;;;;;;5048536;28;38848;-76
2023/11/24 10:18:56;;;;;;;16.57;3.63;;;9.30;3.60;;;;;;5044850;28;36693;-76
2023/11/24 10:21:22;;;;;;;16.83;3.17;;;9.20;8.10;;;;;;5038364;28;40979;-77
2023/11/24 10:23:51;;;;;;;17.07;2.47;;;9.20;5.10;;;;;;5029272;28;36031;-77
2023/11/24 10:26:17;;;;;;;13.40;2.63;;;8.90;1.00;;;;;;5045084;28;37645;-78
2023/11/24 10:28:44;;;;;;;11.57;2.27;;;9.00;1.00;;;;;;5043552;28;37506;-78
2023/11/24 10:31:15;;;;;;;13.73;1.80;;;9.00;1.00;;;;;;5046259;28;38650;-78
2023/11/24 10:33:42;;;;;;;15.87;2.80;;;9.10;1.00;;;;;;5046683;28;37508;-77
2023/11/24 10:36:09;;;;;;;16.50;2.40;;;9.30;1.00;;;;;;5047248;28;38333;-77
2023/11/24 10:38:39;;;;;;;19.33;2.17;;;9.40;1.00;;;;;;5047356;28;38724;-77
2023/11/24 10:41:22;;;;;;;15.00;2.57;;;9.30;9.90;;;;;;5045078;28;38291;-77
2023/11/24 10:43:50;;;;;;;13.40;2.10;;;9.00;25.00;;;;;;5050451;28;38656;-76
2023/11/24 10:46:23;;;;;;;12.03;2.30;;;8.70;49.20;;;;;;5047565;28;38629;-76
2023/11/24 10:49:12;;;;;;;11.67;1.60;;;8.60;83.40;;;;;;5048681;28;38253;-77
2023/11/24 10:52:17;;;;;;;7.93;1.47;;;8.30;90.90;;;;;;5049747;28;49025;-77
2023/11/24 10:54:56;;;;;;;11.10;1.23;;;8.10;60.30;;;;;;4952309;28;47555;-77
2023/11/24 10:57:23;;;;;;;7.27;1.23;;;8.00;54.50;;;;;;5036310;28;37525;-76
2023/11/24 10:59:50;;;;;;;4.17;0.80;;;8.00;36.40;;;;;;5052288;28;39044;-77
2023/11/24 11:02:17;;;;;;;6.30;1.57;;;8.00;24.60;;;;;;5047549;28;36971;-77
2023/11/24 11:04:59;;;;;;;4.73;1.20;;;8.10;31.50;;;;;;5051076;28;37543;-77
2023/11/24 11:07:52;;;;;;;12.38;1.77;;;8.40;25.60;;;;;;5052560;28;39966;-78
2023/11/24 11:10:33;;;;;;;8.77;1.70;;;8.80;24.90;;;;;;5050858;28;39364;-77
2023/11/24 11:13:02;;;;;;;12.47;2.10;;;9.20;6.80;;;;;;5048158;28;38266;-78
2023/11/24 11:15:50;;;;;;;15.03;2.10;;;9.20;1.00;;;;;;5060954;28;48768;-77
2023/11/24 11:18:23;;;;;;;15.90;1.93;;;9.10;6.70;;;;;;5048431;28;40178;-77
2023/11/24 11:20:49;;;;;;;11.93;2.07;;;8.80;3.70;;;;;;5051170;28;37640;-77
2023/11/24 11:23:22;;;;;;;7.63;1.17;;;8.70;17.90;;;;;;5050959;28;37972;-77
2023/11/24 11:25:52;;;;;;;15.43;2.30;;;8.60;20.40;;;;;;5047200;28;35376;-77
2023/11/24 11:28:19;;;;;;;11.63;1.80;;;8.70;18.70;;;;;;5052928;28;39147;-77
2023/11/24 11:30:49;;;;;;;12.53;2.00;;;8.60;18.40;;;;;;5050912;28;37393;-77
2023/11/24 11:33:20;;;;;;;9.80;1.90;;;8.70;27.60;;;;;;5034221;28;37748;-78
2023/11/24 11:35:57;;;;;;;14.40;2.43;;;8.80;22.00;;;;;;5052652;28;37902;-80
2023/11/24 11:38:49;;;;;;;15.03;2.23;;;8.90;17.70;;;;;;5051087;28;38871;-76
2023/11/24 11:41:41;;;;;;;20.10;2.87;;;8.70;30.00;;;;;;5041571;28;37943;-78
2023/11/24 11:44:23;;;;;;;18.53;2.93;;;8.30;57.60;;;;;;5042390;28;36902;-77
2023/11/24 11:47:26;;;;;;;16.00;2.13;;;8.10;63.70;;;;;;5051674;28;37363;-78
2023/11/24 11:49:56;;;;;;;18.67;2.78;;;8.00;46.90;;;;;;5041485;28;48280;-78
2023/11/24 11:52:30;;;;;;;18.07;2.83;;;8.00;31.70;;;;;;5045200;28;39567;-77
2023/11/24 11:55:00;;;;;;;15.23;3.33;;;8.20;18.00;;;;;;5047604;28;37855;-78
2023/11/24 11:57:27;;;;;;;23.07;2.27;;;8.40;27.70;;;;;;5046316;28;37013;-78
2023/11/24 11:59:54;;;;;;;18.83;3.40;;;8.50;21.90;;;;;;5048088;28;38559;-77
2023/11/24 12:02:21;;;;;;;13.93;2.10;;;8.70;21.70;;;;;;5048327;28;37836;-78
2023/11/24 12:04:47;;;;;;;14.90;2.23;;;9.00;31.60;;;;;;5048037;28;38505;-77
2023/11/24 12:07:15;;;;;;;17.90;2.80;;;9.20;10.30;;;;;;5049340;28;37585;-76
2023/11/24 12:09:41;;;;;;;12.30;2.20;;;9.30;5.80;;;;;;5044253;28;37753;-77
2023/11/24 12:12:09;;;;;;;21.40;2.97;;;9.30;1.00;;;;;;5032433;28;39459;-77
2023/11/24 12:14:41;;;;;;;19.00;2.70;;;9.30;1.00;;;;;;5048104;28;37427;-76
2023/11/24 12:17:08;;;;;;;14.47;3.07;;;9.40;1.00;;;;;;5049047;28;35957;-76
2023/11/24 12:19:35;;;;;;;17.03;2.97;;;9.40;1.00;;;;;;5045709;28;40154;-77
2023/11/24 12:22:03;;;;;;;22.50;3.50;;;9.40;1.00;;;;;;5036895;28;38488;-77
2023/11/24 12:24:31;;;;;;;15.33;3.17;;;9.50;1.00;;;;;;5048567;28;47427;-77
2023/11/24 12:27:01;;;;;;;22.33;4.40;;;9.50;1.00;;;;;;5052655;28;36843;-76
2023/11/24 12:29:27;;;;;;;21.00;3.53;;;9.50;1.00;;;;;;5046840;28;46527;-77
2023/11/24 12:31:54;;;;;;;26.33;3.37;;;9.50;1.00;;;;;;5048489;28;38921;-76
2023/11/24 12:34:22;;;;;;;16.23;2.97;;;9.50;1.00;;;;;;5039970;28;38586;-76
2023/11/24 12:36:55;;;;;;;19.50;3.53;;;9.40;1.00;;;;;;5048339;28;37021;-76
2023/11/24 12:39:30;;;;;;;16.47;3.43;;;9.70;1.00;;;;;;5042162;28;40070;-77
2023/11/24 12:41:58;;;;;;;16.67;2.40;;;9.90;1.00;;;;;;5045688;28;37857;-76
2023/11/24 12:44:29;;;;;;;16.87;2.60;;;9.10;50.40;;;;;;5047140;28;39244;-77
2023/11/24 12:47:14;;;;;;;18.17;2.83;;;8.00;99.90;;;;;;5046933;28;38288;-78
2023/11/24 12:50:06;;;;;;;16.67;2.30;;;7.20;99.90;;;;;;5035759;28;47592;-78
2023/11/24 12:52:33;;;;;;;16.10;2.07;;;7.00;99.90;;;;;;5045948;28;47572;-77